createdAt,value
2022-10-18T00:01:00.163Z,11.80
2022-10-18T00:03:26.908Z,11.80
2022-10-18T00:05:53.585Z,11.80
2022-10-18T00:08:20.453Z,11.70
2022-10-18T00:10:47.159Z,11.70
2022-10-18T00:13:13.851Z,11.60
2022-10-18T00:15:40.541Z,11.60
2022-10-18T00:18:07.192Z,11.60
2022-10-18T00:20:33.855Z,11.50
2022-10-18T00:23:00.529Z,11.50
2022-10-18T00:25:27.180Z,11.50
2022-10-18T00:27:53.859Z,11.50
2022-10-18T00:30:20.543Z,11.50
2022-10-18T00:32:47.256Z,11.40
2022-10-18T00:35:13.905Z,11.40
2022-10-18T00:37:40.586Z,11.40
2022-10-18T00:40:07.950Z,11.40
2022-10-18T00:42:35.707Z,11.30
2022-10-18T00:45:04.995Z,11.30
2022-10-18T00:47:31.989Z,11.30
2022-10-18T00:49:58.717Z,11.30
2022-10-18T00:52:35.896Z,11.30
2022-10-18T00:55:02.761Z,11.30
2022-10-18T00:57:29.442Z,11.30
2022-10-18T00:59:56.142Z,11.30
2022-10-18T01:02:22.839Z,11.20
2022-10-18T01:04:49.591Z,11.30
2022-10-18T01:07:31.291Z,11.20
2022-10-18T01:10:27.665Z,11.20
2022-10-18T01:13:07.256Z,11.20
2022-10-18T01:15:45.188Z,11.20
2022-10-18T01:18:25.787Z,11.10
2022-10-18T01:21:02.909Z,11.10
2022-10-18T01:23:52.632Z,11.10
2022-10-18T01:26:56.848Z,11.00
2022-10-18T01:29:23.507Z,11.00
2022-10-18T01:31:57.673Z,10.90
2022-10-18T01:34:26.816Z,10.90
2022-10-18T01:36:54.310Z,10.90
2022-10-18T01:39:23.707Z,10.90
2022-10-18T01:41:51.018Z,10.90
2022-10-18T01:44:27.335Z,10.90
2022-10-18T01:46:54.981Z,10.90
2022-10-18T01:49:21.659Z,10.90
2022-10-18T01:51:48.319Z,10.80
2022-10-18T01:54:20.755Z,10.80
2022-10-18T01:57:06.863Z,10.80
2022-10-18T01:59:42.721Z,10.70
2022-10-18T02:02:18.001Z,10.70
2022-10-18T02:05:06.916Z,10.70
2022-10-18T02:08:00.109Z,10.70
2022-10-18T02:10:41.718Z,10.70
2022-10-18T02:13:09.267Z,10.70
2022-10-18T02:15:39.249Z,10.60
2022-10-18T02:18:08.535Z,10.60
2022-10-18T02:20:35.189Z,10.60
2022-10-18T02:23:01.955Z,10.50
2022-10-18T02:25:29.998Z,10.50
2022-10-18T02:27:56.817Z,10.50
2022-10-18T02:30:25.038Z,10.50
2022-10-18T02:32:58.928Z,10.40
2022-10-18T02:35:29.733Z,10.40
2022-10-18T02:37:57.061Z,10.40
2022-10-18T02:40:23.715Z,10.40
2022-10-18T02:42:53.638Z,10.40
2022-10-18T02:45:20.365Z,10.30
2022-10-18T02:47:49.266Z,10.30
2022-10-18T02:50:15.997Z,10.30
2022-10-18T02:52:42.661Z,10.20
2022-10-18T02:55:09.711Z,10.30
2022-10-18T02:57:36.582Z,10.30
2022-10-18T03:00:04.927Z,10.30
2022-10-18T03:02:31.600Z,10.30
2022-10-18T03:04:58.403Z,10.20
2022-10-18T03:07:25.145Z,10.20
2022-10-18T03:09:51.967Z,10.20
2022-10-18T03:12:18.670Z,10.10
2022-10-18T03:14:45.338Z,10.10
2022-10-18T03:17:11.996Z,10.20
2022-10-18T03:19:38.657Z,10.20
2022-10-18T03:22:05.568Z,10.10
2022-10-18T03:24:32.204Z,10.10
2022-10-18T03:26:58.843Z,10.10
2022-10-18T03:29:25.539Z,10.10
2022-10-18T03:31:52.189Z,10.10
2022-10-18T03:34:18.859Z,10.10
2022-10-18T03:36:45.531Z,10.10
2022-10-18T03:39:12.214Z,10.00
2022-10-18T03:41:38.871Z,10.00
2022-10-18T03:44:05.574Z,10.00
2022-10-18T03:46:32.225Z,10.00
2022-10-18T03:48:58.873Z,10.00
2022-10-18T03:51:25.533Z,10.00
2022-10-18T03:53:52.210Z,10.00
2022-10-18T03:56:18.862Z,10.00
2022-10-18T03:58:45.521Z,10.00
2022-10-18T04:01:12.341Z,10.00
2022-10-18T04:03:39.094Z,9.90
2022-10-18T04:06:05.931Z,9.90
2022-10-18T04:08:32.596Z,9.90
2022-10-18T04:10:59.248Z,9.80
2022-10-18T04:13:25.973Z,9.80
2022-10-18T04:15:52.621Z,9.70
2022-10-18T04:18:19.295Z,9.70
2022-10-18T04:20:45.987Z,9.60
2022-10-18T04:23:12.810Z,9.60
2022-10-18T04:25:39.612Z,9.60
2022-10-18T04:28:06.293Z,9.60
2022-10-18T04:30:32.975Z,9.50
2022-10-18T04:32:59.631Z,9.50
2022-10-18T04:35:26.316Z,9.50
2022-10-18T04:37:52.983Z,9.40
2022-10-18T04:40:19.630Z,9.40
2022-10-18T04:42:46.489Z,9.40
2022-10-18T04:45:13.184Z,9.40
2022-10-18T04:47:39.888Z,9.40
2022-10-18T04:50:06.875Z,9.30
2022-10-18T04:52:33.546Z,9.40
2022-10-18T04:55:00.247Z,9.40
2022-10-18T04:57:26.923Z,9.40
2022-10-18T04:59:53.576Z,9.30
2022-10-18T05:02:20.239Z,9.40
2022-10-18T05:04:46.905Z,9.40
2022-10-18T05:07:13.566Z,9.30
2022-10-18T05:09:40.210Z,9.30
2022-10-18T05:12:06.913Z,9.30
2022-10-18T05:14:33.579Z,9.30
2022-10-18T05:17:00.285Z,9.30
2022-10-18T05:19:26.970Z,9.30
2022-10-18T05:21:53.708Z,9.30
2022-10-18T05:24:21.963Z,9.20
2022-10-18T05:26:50.826Z,9.30
2022-10-18T05:29:17.619Z,9.20
2022-10-18T05:31:44.433Z,9.20
2022-10-18T05:34:11.110Z,9.20
2022-10-18T05:36:37.797Z,9.20
2022-10-18T05:39:05.079Z,9.20
2022-10-18T05:41:32.058Z,9.20
2022-10-18T05:43:58.763Z,9.20
2022-10-18T05:46:25.515Z,9.20
2022-10-18T05:48:52.247Z,9.20
2022-10-18T05:51:19.155Z,9.20
2022-10-18T05:53:45.830Z,9.20
2022-10-18T05:56:12.525Z,9.20
2022-10-18T05:58:39.216Z,9.20
2022-10-18T06:01:06.058Z,9.20
2022-10-18T06:03:32.812Z,9.20
2022-10-18T06:06:02.606Z,9.10
2022-10-18T06:08:29.245Z,9.10
2022-10-18T06:10:56.080Z,9.10
2022-10-18T06:13:22.773Z,9.10
2022-10-18T06:15:49.773Z,9.10
2022-10-18T06:18:16.564Z,9.10
2022-10-18T06:20:43.226Z,9.10
2022-10-18T06:23:09.911Z,9.10
2022-10-18T06:25:36.590Z,9.10
2022-10-18T06:28:07.750Z,9.00
2022-10-18T06:30:36.828Z,9.00
2022-10-18T06:33:03.510Z,9.00
2022-10-18T06:35:30.159Z,9.00
2022-10-18T06:37:56.843Z,9.00
2022-10-18T06:40:23.543Z,9.00
2022-10-18T06:43:00.014Z,9.00
2022-10-18T06:45:27.417Z,9.00
2022-10-18T06:47:54.079Z,9.00
2022-10-18T06:50:20.741Z,9.00
2022-10-18T06:52:47.428Z,9.00
2022-10-18T06:55:14.096Z,9.00
2022-10-18T06:57:40.753Z,9.00
2022-10-18T07:00:08.120Z,9.00
2022-10-18T07:02:35.206Z,9.10
2022-10-18T07:05:01.989Z,9.00
2022-10-18T07:07:31.499Z,9.10
2022-10-18T07:09:58.543Z,9.10
2022-10-18T07:12:25.296Z,9.10
2022-10-18T07:14:51.972Z,9.10
2022-10-18T07:17:18.634Z,9.10
2022-10-18T07:19:45.264Z,9.20
2022-10-18T07:22:11.944Z,9.20
2022-10-18T07:24:38.614Z,9.20
2022-10-18T07:27:05.331Z,9.20
2022-10-18T07:29:32.037Z,9.30
2022-10-18T07:31:58.723Z,9.30
2022-10-18T07:34:25.375Z,9.30
2022-10-18T07:36:52.068Z,9.40
2022-10-18T07:39:18.779Z,9.40
2022-10-18T07:41:45.450Z,9.40
2022-10-18T07:44:12.122Z,9.50
2022-10-18T07:46:39.699Z,9.50
2022-10-18T07:49:07.213Z,9.60
2022-10-18T07:51:34.408Z,9.70
2022-10-18T07:54:01.166Z,9.70
2022-10-18T07:56:28.072Z,9.80
2022-10-18T07:58:56.847Z,9.80
2022-10-18T08:01:24.506Z,9.90
2022-10-18T08:03:52.611Z,10.00
2022-10-18T08:06:20.182Z,10.10
2022-10-18T08:08:47.891Z,10.20
2022-10-18T08:11:19.439Z,10.20
2022-10-18T08:13:46.470Z,10.40
2022-10-18T08:16:15.623Z,10.50
2022-10-18T08:18:42.530Z,10.70
2022-10-18T08:21:10.368Z,10.80
2022-10-18T08:23:37.267Z,11.00
2022-10-18T08:26:12.103Z,11.10
2022-10-18T08:28:38.855Z,11.30
2022-10-18T08:31:07.028Z,11.50
2022-10-18T08:33:33.824Z,11.70
2022-10-18T08:36:01.611Z,11.90
2022-10-18T08:38:32.204Z,12.00
2022-10-18T08:41:47.352Z,12.20
2022-10-18T08:44:32.303Z,12.40
2022-10-18T08:47:05.924Z,12.70
2022-10-18T08:50:04.097Z,12.90
2022-10-18T08:52:34.848Z,13.10
2022-10-18T08:55:23.321Z,13.20
2022-10-18T08:57:50.467Z,13.40
2022-10-18T09:00:21.791Z,13.50
2022-10-18T09:03:03.717Z,13.50
2022-10-18T09:05:39.223Z,13.60
2022-10-18T09:08:33.957Z,13.60
2022-10-18T09:11:19.170Z,13.60
2022-10-18T09:14:01.038Z,13.70
2022-10-18T09:16:59.527Z,13.70
2022-10-18T09:19:41.823Z,13.90
2022-10-18T09:22:16.393Z,14.00
2022-10-18T09:25:18.262Z,14.20
2022-10-18T09:28:15.634Z,14.40
2022-10-18T09:31:00.718Z,14.70
2022-10-18T09:33:36.660Z,15.20
2022-10-18T09:36:11.412Z,15.70
2022-10-18T09:39:00.426Z,16.50
2022-10-18T09:41:42.406Z,17.50
2022-10-18T09:44:31.665Z,18.80
2022-10-18T09:47:01.887Z,20.10
2022-10-18T09:49:38.721Z,21.10
2022-10-18T09:52:08.251Z,22.10
2022-10-18T09:54:46.831Z,23.40
2022-10-18T09:57:31.238Z,24.60
2022-10-18T09:59:58.128Z,25.80
2022-10-18T10:02:24.853Z,26.90
2022-10-18T10:04:51.816Z,27.60
2022-10-18T10:07:20.079Z,28.40
2022-10-18T10:09:56.400Z,28.90
2022-10-18T10:12:31.517Z,29.30
2022-10-18T10:15:35.262Z,29.80
2022-10-18T10:18:27.720Z,30.40
2022-10-18T10:20:55.848Z,30.80
2022-10-18T10:23:23.669Z,31.20
2022-10-18T10:26:20.332Z,31.50
2022-10-18T10:28:47.109Z,31.90
2022-10-18T10:31:26.716Z,32.30
2022-10-18T10:34:18.845Z,32.50
2022-10-18T10:36:51.776Z,32.70
2022-10-18T10:39:19.238Z,33.00
2022-10-18T10:41:50.388Z,33.20
2022-10-18T10:44:21.434Z,33.50
2022-10-18T10:46:49.266Z,33.60
2022-10-18T10:49:40.590Z,33.60
2022-10-18T10:52:09.273Z,33.60
2022-10-18T10:54:52.124Z,33.70
2022-10-18T10:57:26.817Z,34.00
2022-10-18T10:59:55.029Z,34.50
2022-10-18T11:02:23.358Z,34.80
2022-10-18T11:04:51.394Z,35.00
2022-10-18T11:07:39.523Z,34.90
2022-10-18T11:10:09.634Z,34.70
2022-10-18T11:13:00.997Z,34.80
2022-10-18T11:15:58.498Z,34.80
2022-10-18T11:18:29.544Z,34.90
2022-10-18T11:21:08.209Z,34.80
2022-10-18T11:23:36.216Z,34.70
2022-10-18T11:26:12.026Z,34.70
2022-10-18T11:29:15.965Z,35.00
2022-10-18T11:31:48.532Z,35.10
2022-10-18T11:34:15.185Z,35.50
2022-10-18T11:37:15.592Z,35.50
2022-10-18T11:40:01.998Z,35.30
2022-10-18T11:42:51.982Z,35.20
2022-10-18T11:45:39.870Z,35.40
2022-10-18T11:48:26.859Z,35.40
2022-10-18T11:51:10.472Z,35.40
2022-10-18T11:53:52.166Z,35.40
2022-10-18T11:56:30.551Z,35.30
2022-10-18T11:59:00.086Z,35.30
2022-10-18T12:01:51.817Z,35.30
2022-10-18T12:04:20.312Z,35.50
2022-10-18T12:06:48.762Z,35.40
2022-10-18T12:09:36.926Z,35.50
2022-10-18T12:12:26.735Z,35.60
2022-10-18T12:15:14.509Z,35.50
2022-10-18T12:20:17.732Z,35.70
2022-10-18T12:23:11.984Z,35.80
2022-10-18T12:25:45.637Z,35.70
2022-10-18T12:28:37.138Z,35.70
2022-10-18T12:31:08.561Z,35.70
2022-10-18T12:33:41.833Z,35.50
2022-10-18T12:36:20.828Z,34.10
2022-10-18T12:38:58.505Z,32.00
2022-10-18T12:41:25.756Z,30.20
2022-10-18T12:44:03.459Z,28.80
2022-10-18T12:46:45.886Z,29.20
2022-10-18T12:49:13.350Z,30.60
2022-10-18T12:51:54.017Z,31.90
2022-10-18T12:54:23.995Z,33.00
2022-10-18T12:56:50.677Z,33.80
2022-10-18T12:59:17.312Z,34.40
2022-10-18T13:01:53.013Z,34.80
2022-10-18T13:04:29.081Z,35.20
2022-10-18T13:06:58.998Z,35.50
2022-10-18T13:09:27.166Z,35.70
2022-10-18T13:12:11.934Z,35.60
2022-10-18T13:15:24.175Z,35.30
2022-10-18T13:18:00.379Z,34.40
2022-10-18T13:20:40.714Z,32.10
2022-10-18T13:23:28.956Z,30.20
2022-10-18T13:26:17.845Z,28.50
2022-10-18T13:29:12.013Z,27.20
2022-10-18T13:31:50.941Z,26.10
2022-10-18T13:34:28.176Z,25.20
2022-10-18T13:37:02.465Z,24.50
2022-10-18T13:39:29.341Z,24.10
2022-10-18T13:41:57.740Z,24.50
2022-10-18T13:44:26.603Z,26.00
2022-10-18T13:46:56.263Z,27.60
2022-10-18T13:49:34.972Z,29.20
2022-10-18T13:52:36.112Z,30.50
2022-10-18T13:55:45.971Z,31.20
2022-10-18T13:58:29.994Z,30.30
2022-10-18T14:01:21.874Z,28.80
2022-10-18T14:04:26.149Z,27.50
2022-10-18T14:06:52.868Z,26.40
2022-10-18T14:12:41.611Z,24.80
2022-10-18T14:15:14.503Z,24.10
2022-10-18T14:18:00.277Z,23.50
2022-10-18T14:20:55.202Z,23.10
2022-10-18T14:23:31.551Z,22.70
2022-10-18T14:26:08.415Z,22.30
2022-10-18T14:28:55.313Z,22.10
2022-10-18T14:31:23.203Z,21.90
2022-10-18T14:33:57.288Z,21.60
2022-10-18T14:36:26.272Z,21.50
2022-10-18T14:38:52.981Z,21.30
2022-10-18T14:41:23.330Z,21.20
2022-10-18T14:43:50.475Z,21.10
2022-10-18T14:46:28.056Z,21.00
2022-10-18T14:49:00.777Z,20.90
2022-10-18T14:51:33.279Z,20.80
2022-10-18T14:54:00.038Z,20.70
2022-10-18T14:56:31.363Z,20.60
2022-10-18T14:59:01.355Z,20.50
2022-10-18T15:01:30.427Z,20.40
2022-10-18T15:03:58.142Z,20.30
2022-10-18T15:06:24.950Z,20.30
2022-10-18T15:08:56.755Z,20.30
2022-10-18T15:11:23.732Z,20.20
2022-10-18T15:13:54.749Z,20.10
2022-10-18T15:16:24.334Z,20.10
2022-10-18T15:19:21.693Z,20.00
2022-10-18T15:22:07.955Z,19.90
2022-10-18T15:24:41.191Z,19.80
2022-10-18T15:27:07.849Z,19.70
2022-10-18T15:29:34.559Z,19.70
2022-10-18T15:32:07.731Z,19.60
2022-10-18T15:34:34.439Z,19.50
2022-10-18T15:37:01.182Z,19.40
2022-10-18T15:39:28.917Z,19.40
2022-10-18T15:41:59.531Z,19.40
2022-10-18T15:44:32.525Z,19.40
2022-10-18T15:47:14.409Z,19.40
2022-10-18T15:49:47.239Z,19.30
2022-10-18T15:52:26.218Z,19.30
2022-10-18T15:54:53.018Z,19.20
2022-10-18T15:57:19.697Z,19.20
2022-10-18T15:59:54.160Z,19.10
2022-10-18T16:02:20.883Z,19.10
2022-10-18T16:04:47.595Z,19.00
2022-10-18T16:07:14.291Z,18.90
2022-10-18T16:09:40.958Z,18.90
2022-10-18T16:12:07.707Z,18.80
2022-10-18T16:14:34.403Z,18.80
2022-10-18T16:17:05.938Z,18.70
2022-10-18T16:19:32.695Z,18.70
2022-10-18T16:22:05.150Z,18.60
2022-10-18T16:24:33.944Z,18.50
2022-10-18T16:27:00.694Z,18.40
2022-10-18T16:29:27.420Z,18.30
2022-10-18T16:31:54.175Z,18.20
2022-10-18T16:34:22.016Z,18.10
2022-10-18T16:36:48.729Z,18.00
2022-10-18T16:39:16.856Z,17.90
2022-10-18T16:41:43.973Z,17.90
2022-10-18T16:44:10.678Z,17.80
2022-10-18T16:46:37.513Z,17.80
2022-10-18T16:49:04.250Z,17.70
2022-10-18T16:51:30.995Z,17.60
2022-10-18T16:53:57.785Z,17.60
2022-10-18T16:56:28.357Z,17.50
2022-10-18T16:58:55.072Z,17.50
2022-10-18T17:01:22.328Z,17.40
2022-10-18T17:03:49.149Z,17.40
2022-10-18T17:06:25.933Z,17.30
2022-10-18T17:08:52.800Z,17.30
2022-10-18T17:11:20.327Z,17.20
2022-10-18T17:13:47.092Z,17.10
2022-10-18T17:19:03.334Z,17.10
2022-10-18T17:21:30.387Z,17.00
2022-10-18T17:23:57.097Z,17.00
2022-10-18T17:26:28.778Z,16.90
2022-10-18T17:28:58.243Z,16.80
2022-10-18T17:31:25.007Z,16.80
2022-10-18T17:33:51.753Z,16.70
2022-10-18T17:36:18.416Z,16.70
2022-10-18T17:38:45.090Z,16.60
2022-10-18T17:41:11.865Z,16.50
2022-10-18T17:46:14.116Z,16.40
2022-10-18T17:48:41.784Z,16.30
2022-10-18T17:51:12.598Z,16.30
2022-10-18T17:53:39.433Z,16.30
2022-10-18T17:56:06.528Z,16.30
2022-10-18T17:58:33.189Z,16.30
2022-10-18T18:01:20.389Z,16.20
2022-10-18T18:03:47.672Z,16.20
2022-10-18T18:06:22.245Z,16.20
2022-10-18T18:08:49.430Z,16.10
2022-10-18T18:11:16.689Z,16.10
2022-10-18T18:13:43.511Z,16.00
2022-10-18T18:16:18.052Z,16.00
2022-10-18T18:18:45.333Z,16.00
2022-10-18T18:21:12.580Z,16.00
2022-10-18T18:23:39.626Z,16.10
2022-10-18T18:26:06.739Z,16.10
2022-10-18T18:28:34.510Z,16.10
2022-10-18T18:31:08.314Z,16.20
2022-10-18T18:33:36.264Z,16.20
2022-10-18T18:36:03.629Z,16.20
2022-10-18T18:38:30.726Z,16.20
2022-10-18T18:41:08.320Z,16.20
2022-10-18T18:43:35.320Z,16.10
2022-10-18T18:46:02.090Z,16.10
2022-10-18T18:48:28.956Z,16.10
2022-10-18T18:50:55.632Z,16.00
2022-10-18T18:53:24.086Z,16.00
2022-10-18T18:55:53.699Z,15.90
2022-10-18T18:58:20.387Z,15.80
2022-10-18T19:00:47.062Z,15.70
2022-10-18T19:03:13.742Z,15.70
2022-10-18T19:05:40.386Z,15.70
2022-10-18T19:08:07.072Z,15.60
2022-10-18T19:10:34.020Z,15.60
2022-10-18T19:13:01.385Z,15.60
2022-10-18T19:15:28.062Z,15.60
2022-10-18T19:17:55.750Z,15.50
2022-10-18T19:20:22.463Z,15.50
2022-10-18T19:22:49.161Z,15.50
2022-10-18T19:25:15.924Z,15.50
2022-10-18T19:27:42.581Z,15.50
2022-10-18T19:30:10.639Z,15.50
2022-10-18T19:32:37.336Z,15.50
2022-10-18T19:35:04.272Z,15.50
2022-10-18T19:37:31.673Z,15.50
2022-10-18T19:39:58.642Z,15.40
2022-10-18T19:42:27.514Z,15.40
2022-10-18T19:44:57.159Z,15.40
2022-10-18T19:47:23.922Z,15.40
2022-10-18T19:49:50.624Z,15.30
2022-10-18T19:52:17.332Z,15.40
2022-10-18T19:54:44.025Z,15.30
2022-10-18T19:57:10.733Z,15.30
2022-10-18T19:59:37.451Z,15.30
2022-10-18T20:02:04.175Z,15.20
2022-10-18T20:04:30.946Z,15.20
2022-10-18T20:06:57.639Z,15.20
2022-10-18T20:09:24.294Z,15.20
2022-10-18T20:11:50.969Z,15.10
2022-10-18T20:14:17.651Z,15.10
2022-10-18T20:16:44.323Z,15.10
2022-10-18T20:19:11.189Z,15.00
2022-10-18T20:21:37.880Z,15.00
2022-10-18T20:24:05.163Z,15.00
2022-10-18T20:26:32.336Z,15.00
2022-10-18T20:28:59.085Z,15.00
2022-10-18T20:31:32.992Z,15.00
2022-10-18T20:34:01.406Z,15.10
2022-10-18T20:36:28.903Z,15.00
2022-10-18T20:38:55.589Z,15.00
2022-10-18T20:41:29.848Z,15.00
2022-10-18T20:43:58.362Z,15.00
2022-10-18T20:46:25.579Z,15.00
2022-10-18T20:48:52.497Z,15.00
2022-10-18T20:51:19.312Z,15.00
2022-10-18T20:53:46.077Z,15.00
2022-10-18T20:56:14.387Z,14.90
2022-10-18T20:58:42.167Z,14.90
2022-10-18T21:01:12.890Z,14.90
2022-10-18T21:03:44.216Z,14.90
2022-10-18T21:06:15.556Z,14.90
2022-10-18T21:08:42.444Z,15.00
2022-10-18T21:11:09.516Z,14.90
2022-10-18T21:13:36.257Z,14.90
2022-10-18T21:16:03.397Z,14.90
2022-10-18T21:18:31.787Z,14.90
2022-10-18T21:21:18.174Z,14.80
2022-10-18T21:23:44.937Z,14.90
2022-10-18T21:26:18.442Z,14.90
2022-10-18T21:28:45.535Z,14.90
2022-10-18T21:31:14.343Z,14.90
2022-10-18T21:33:41.585Z,14.90
2022-10-18T21:36:08.374Z,14.90
2022-10-18T21:38:35.085Z,14.90
2022-10-18T21:41:04.017Z,14.90
2022-10-18T21:43:30.676Z,14.90
2022-10-18T21:45:58.933Z,14.80
2022-10-18T21:48:26.349Z,14.80
2022-10-18T21:50:53.413Z,14.80
2022-10-18T21:53:20.800Z,14.80
2022-10-18T21:55:47.624Z,14.90
2022-10-18T21:58:14.587Z,14.80
2022-10-18T22:00:41.318Z,14.80
2022-10-18T22:03:12.159Z,14.90
2022-10-18T22:05:38.913Z,14.90
2022-10-18T22:08:06.082Z,14.90
2022-10-18T22:10:33.362Z,14.90
2022-10-18T22:13:00.116Z,14.90
2022-10-18T22:15:26.813Z,14.90
2022-10-18T22:17:53.568Z,14.90
2022-10-18T22:20:20.255Z,14.90
2022-10-18T22:22:46.977Z,14.80
2022-10-18T22:25:13.785Z,14.80
2022-10-18T22:27:40.454Z,14.80
2022-10-18T22:30:07.518Z,14.80
2022-10-18T22:32:34.216Z,14.80
2022-10-18T22:35:00.943Z,14.70
2022-10-18T22:37:27.669Z,14.70
2022-10-18T22:39:54.346Z,14.70
2022-10-18T22:42:21.021Z,14.70
2022-10-18T22:44:47.714Z,14.60
2022-10-18T22:47:15.186Z,14.60
2022-10-18T22:49:42.122Z,14.60
2022-10-18T22:52:08.784Z,14.50
2022-10-18T22:54:35.522Z,14.50
2022-10-18T22:57:02.218Z,14.50
2022-10-18T22:59:28.911Z,14.50
2022-10-18T23:01:55.571Z,14.50
2022-10-18T23:04:22.302Z,14.50
2022-10-18T23:06:48.984Z,14.50
2022-10-18T23:09:15.719Z,14.40
2022-10-18T23:11:42.390Z,14.40
2022-10-18T23:14:09.941Z,14.40
2022-10-18T23:16:36.651Z,14.40
2022-10-18T23:19:03.352Z,14.30
2022-10-18T23:21:29.992Z,14.40
2022-10-18T23:23:57.080Z,14.30
2022-10-18T23:26:24.846Z,14.30
2022-10-18T23:28:52.169Z,14.30
2022-10-18T23:31:23.387Z,14.30
2022-10-18T23:33:51.481Z,14.30
2022-10-18T23:36:18.224Z,14.30
2022-10-18T23:38:44.930Z,14.30
2022-10-18T23:41:12.204Z,14.30
2022-10-18T23:43:39.527Z,14.30
2022-10-18T23:46:06.312Z,14.30
2022-10-18T23:48:33.183Z,14.30
2022-10-18T23:51:00.458Z,14.30
2022-10-18T23:53:27.166Z,14.30
2022-10-18T23:56:01.634Z,14.30
2022-10-18T23:58:28.716Z,14.30
